Time;durP1;ratioP1;P1;durP2;ratioP2;P2;SDS_P1;SDS_P2;PMS_P1;PMS_P2;Temp;Humidity;BMP_temperature;BMP_pressure;BME280_temperature;BME280_humidity;BME280_pressure;Samples;Min_cycle;Max_cycle;Signal;HPM_P1;HPM_P2
2023/10/20 00:02:04;;;;;;;0.43;0.43;;;;;;;11.03;89.68;95148.50;5094606;28;20074;-75
2023/10/20 00:04:33;;;;;;;1.27;1.27;;;;;;;11.03;89.29;95156.50;5100349;28;20466;-75
2023/10/20 00:07:02;;;;;;;0.50;0.50;;;;;;;11.06;89.53;95149.06;5077750;28;20499;-75
2023/10/20 00:09:30;;;;;;;0.55;0.55;;;;;;;11.04;89.37;95147.44;5073308;28;20101;-75
2023/10/20 00:11:58;;;;;;;0.80;0.80;;;;;;;11.04;89.41;95150.09;5065703;28;20048;-75
2023/10/20 00:14:26;;;;;;;0.80;0.80;;;;;;;11.12;89.35;95148.00;5088333;28;20410;-75
2023/10/20 00:16:55;;;;;;;0.50;0.50;;;;;;;11.13;89.51;95133.59;5091453;28;20032;-75
2023/10/20 00:19:23;;;;;;;0.55;0.55;;;;;;;11.12;89.40;95138.13;5099885;28;20050;-75
2023/10/20 00:21:52;;;;;;;0.30;0.30;;;;;;;11.12;89.63;95132.78;5105055;28;20060;-75
2023/10/20 00:24:21;;;;;;;0.50;0.50;;;;;;;11.12;89.90;95122.13;5087693;28;20048;-75
2023/10/20 00:26:49;;;;;;;0.50;0.50;;;;;;;11.11;90.02;95117.06;5091169;28;20384;-75
2023/10/20 00:29:17;;;;;;;0.45;0.45;;;;;;;11.10;89.77;95113.59;5087764;28;20078;-74
2023/10/20 00:31:45;;;;;;;0.50;0.47;;;;;;;11.12;90.20;95098.09;5078523;28;20089;-72
2023/10/20 00:34:14;;;;;;;0.40;0.40;;;;;;;11.14;90.39;95087.97;5099580;28;20044;-73
2023/10/20 00:36:42;;;;;;;0.40;0.40;;;;;;;11.14;90.73;95077.28;5093980;28;20028;-73
2023/10/20 00:39:10;;;;;;;0.40;0.40;;;;;;;11.15;90.62;95062.88;5080832;28;20047;-72
2023/10/20 00:41:38;;;;;;;0.35;0.35;;;;;;;11.15;90.89;95062.06;5089905;28;20618;-73
2023/10/20 00:44:05;;;;;;;0.50;0.50;;;;;;;11.13;90.39;95065.00;5097713;28;20123;-73
2023/10/20 00:46:34;;;;;;;0.55;0.55;;;;;;;11.12;90.32;95060.72;5072947;28;20036;-75
2023/10/20 00:49:02;;;;;;;0.50;0.50;;;;;;;11.12;91.01;95052.72;5078509;28;20059;-73
2023/10/20 00:51:32;;;;;;;0.40;0.40;;;;;;;11.15;91.32;95054.88;5098444;28;20047;-75
2023/10/20 00:54:01;;;;;;;0.52;0.52;;;;;;;11.13;90.77;95054.31;5061631;28;20101;-74
2023/10/20 00:56:30;;;;;;;0.88;0.88;;;;;;;11.09;90.95;95045.25;5080924;28;20496;-75
2023/10/20 00:58:58;;;;;;;0.60;0.60;;;;;;;11.09;91.04;95041.78;5094038;28;20044;-75
2023/10/20 01:01:25;;;;;;;0.50;0.50;;;;;;;11.12;91.48;95035.88;5081124;28;20051;-74
2023/10/20 01:03:53;;;;;;;0.40;0.40;;;;;;;11.16;91.38;95040.47;5078936;28;20457;-76
2023/10/20 01:06:21;;;;;;;0.40;0.40;;;;;;;11.11;91.27;95047.66;5093330;28;20063;-74
2023/10/20 01:08:55;;;;;;;0.60;0.60;;;;;;;11.09;91.08;95031.91;5090427;28;20064;-74
2023/10/20 01:11:22;;;;;;;0.50;0.50;;;;;;;11.09;91.56;95023.88;5092831;28;20044;-73
2023/10/20 01:13:51;;;;;;;0.50;0.50;;;;;;;11.10;91.42;95009.47;5087064;28;20422;-72
2023/10/20 01:16:19;;;;;;;0.40;0.40;;;;;;;11.12;91.50;95007.31;5103545;28;20036;-75
2023/10/20 01:18:46;;;;;;;0.50;0.50;;;;;;;11.12;91.59;94999.31;5073209;28;20076;-73
2023/10/20 01:21:14;;;;;;;0.47;0.47;;;;;;;11.11;91.60;95000.38;5084568;28;20032;-72
2023/10/20 01:23:42;;;;;;;0.40;0.40;;;;;;;11.12;91.49;94996.66;5091909;28;20037;-74
2023/10/20 01:26:12;;;;;;;0.50;0.50;;;;;;;11.10;91.40;94990.78;5068948;28;20707;-75
2023/10/20 01:28:39;;;;;;;0.50;0.50;;;;;;;11.01;91.48;94993.16;5072377;28;20089;-73
2023/10/20 01:31:07;;;;;;;0.40;0.40;;;;;;;11.06;91.87;94996.91;5093438;28;20075;-74
2023/10/20 01:33:35;;;;;;;0.50;0.50;;;;;;;11.06;92.00;95000.38;5068423;28;20044;-73
2023/10/20 01:36:02;;;;;;;0.35;0.35;;;;;;;11.12;91.39;94999.31;5068957;28;20048;-73
2023/10/20 01:38:30;;;;;;;0.55;0.55;;;;;;;11.09;91.91;94993.72;5067429;28;20135;-73
2023/10/20 01:40:58;;;;;;;0.57;0.57;;;;;;;11.05;91.84;94985.44;5091962;28;20040;-73
2023/10/20 01:43:28;;;;;;;0.55;0.55;;;;;;;11.01;91.87;94989.66;5073601;28;20056;-74
2023/10/20 01:45:56;;;;;;;0.52;0.52;;;;;;;11.07;91.76;94974.50;5074069;28;20048;-74
2023/10/20 01:48:23;;;;;;;0.60;0.60;;;;;;;11.02;91.90;94973.41;5074624;28;20040;-74
2023/10/20 01:50:51;;;;;;;0.40;0.40;;;;;;;11.05;91.65;94982.75;5071996;28;20048;-75
2023/10/20 01:53:19;;;;;;;0.43;0.43;;;;;;;10.92;91.64;94973.38;5085786;28;20066;-76
2023/10/20 01:55:49;;;;;;;0.40;0.40;;;;;;;10.85;92.00;94980.81;5087842;28;20044;-75
2023/10/20 01:58:17;;;;;;;0.52;0.52;;;;;;;10.84;92.75;94976.53;5073657;28;20055;-76
2023/10/20 02:00:49;;;;;;;0.50;0.50;;;;;;;10.88;92.36;94984.84;5078567;28;20049;-75
2023/10/20 02:03:17;;;;;;;0.43;0.43;;;;;;;10.84;92.75;94971.19;5066105;28;20156;-75
2023/10/20 02:05:45;;;;;;;0.50;0.50;;;;;;;10.80;93.09;94977.31;5098413;28;20111;-76
2023/10/20 02:08:13;;;;;;;0.40;0.40;;;;;;;10.79;93.25;94963.19;5072220;28;20052;-75
2023/10/20 02:10:44;;;;;;;0.73;0.73;;;;;;;10.81;93.01;94958.38;5093126;28;20040;-75
2023/10/20 02:13:11;;;;;;;0.32;0.32;;;;;;;10.81;92.96;94950.38;5074924;28;20512;-75
2023/10/20 02:15:39;;;;;;;0.60;0.60;;;;;;;10.85;92.99;94954.13;5074879;28;20134;-74
2023/10/20 02:18:08;;;;;;;0.50;0.50;;;;;;;10.85;92.95;94956.00;5098605;28;20063;-75
2023/10/20 02:20:37;;;;;;;0.98;0.50;;;;;;;10.87;92.80;94945.88;5072027;28;20105;-76
2023/10/20 02:23:05;;;;;;;0.32;0.32;;;;;;;10.85;92.87;94940.00;5071441;28;20388;-76
2023/10/20 02:25:33;;;;;;;0.30;0.30;;;;;;;10.84;92.74;94927.72;5071435;28;20048;-75
2023/10/20 02:28:02;;;;;;;0.40;0.40;;;;;;;10.85;92.81;94930.13;5095861;28;20598;-76
2023/10/20 02:30:32;;;;;;;0.50;0.50;;;;;;;10.86;92.86;94939.72;5080320;28;20156;-76
2023/10/20 02:33:01;;;;;;;0.52;0.52;;;;;;;10.86;92.77;94936.25;5092388;28;20114;-76
2023/10/20 02:35:30;;;;;;;0.55;0.55;;;;;;;10.87;93.01;94928.00;5096360;28;20400;-76
2023/10/20 02:37:58;;;;;;;0.40;0.40;;;;;;;10.88;92.79;94942.13;5089521;23;20072;-75
2023/10/20 02:40:26;;;;;;;0.63;0.50;;;;;;;10.83;93.13;94947.44;5020506;28;20103;-75
2023/10/20 02:42:53;;;;;;;0.50;0.50;;;;;;;10.80;93.35;94951.44;4994027;28;20046;-76
2023/10/20 02:45:21;;;;;;;0.47;0.47;;;;;;;10.81;93.42;94944.22;4997270;28;20041;-75
2023/10/20 02:47:51;;;;;;;0.50;0.50;;;;;;;10.83;93.33;94936.78;4997388;28;20136;-75
2023/10/20 02:50:19;;;;;;;0.40;0.40;;;;;;;10.78;93.47;94936.78;5001231;28;20325;-75
2023/10/20 02:52:48;;;;;;;0.40;0.40;;;;;;;10.76;93.64;94939.69;5004707;28;20041;-75
2023/10/20 02:55:16;;;;;;;0.50;0.50;;;;;;;10.75;93.33;94950.63;5021657;28;20045;-73
2023/10/20 02:57:44;;;;;;;0.40;0.40;;;;;;;10.70;93.52;94939.91;5005049;28;20085;-73
2023/10/20 03:00:17;;;;;;;0.50;0.50;;;;;;;10.73;92.96;94923.41;5002047;28;20054;-73
2023/10/20 03:02:48;;;;;;;0.40;0.40;;;;;;;10.69;93.50;94919.66;4997394;28;20056;-74
2023/10/20 03:05:16;;;;;;;0.50;0.50;;;;;;;10.65;93.39;94922.84;4985243;28;20750;-73
2023/10/20 03:07:45;;;;;;;0.68;0.68;;;;;;;10.75;93.37;94923.94;4998838;28;20046;-73
2023/10/20 03:10:14;;;;;;;0.47;0.47;;;;;;;10.72;93.07;94919.13;5019301;28;20050;-73
2023/10/20 03:12:42;;;;;;;0.43;0.43;;;;;;;10.71;93.51;94912.97;5000865;28;20074;-72
2023/10/20 03:15:11;;;;;;;0.68;0.68;;;;;;;10.78;93.31;94910.09;5013039;28;20120;-73
2023/10/20 03:17:38;;;;;;;0.50;0.50;;;;;;;10.85;92.87;94916.78;5004178;28;20038;-72
2023/10/20 03:20:08;;;;;;;0.90;0.90;;;;;;;10.78;92.78;94923.44;5024724;28;20413;-73
2023/10/20 03:22:37;;;;;;;0.52;0.52;;;;;;;10.74;92.75;94917.00;5014438;28;20042;-73
2023/10/20 03:25:07;;;;;;;0.40;0.40;;;;;;;10.66;92.95;94904.97;5008390;28;20053;-73
2023/10/20 03:27:37;;;;;;;0.50;0.50;;;;;;;10.68;93.26;94897.53;4990483;28;20145;-73
2023/10/20 03:30:07;;;;;;;0.45;0.45;;;;;;;10.65;93.22;94895.38;5013993;28;20046;-73
2023/10/20 03:32:50;;;;;;;0.32;0.32;;;;;;;10.64;93.31;94891.91;5013911;28;20088;-74
2023/10/20 03:35:21;;;;;;;0.50;0.50;;;;;;;10.66;93.50;94895.13;5021287;28;20033;-75
2023/10/20 03:37:54;;;;;;;0.43;0.43;;;;;;;10.66;93.58;94880.97;5011289;28;20038;-73
2023/10/20 03:40:30;;;;;;;0.55;0.55;;;;;;;10.65;94.00;94868.69;4992185;28;20172;-74
2023/10/20 03:43:01;;;;;;;0.40;0.40;;;;;;;10.66;93.83;94860.44;5019069;28;20052;-73
2023/10/20 03:45:39;;;;;;;0.60;0.60;;;;;;;10.68;93.90;94860.19;5016582;28;20143;-74
2023/10/20 03:48:09;;;;;;;0.50;0.50;;;;;;;10.70;93.62;94862.56;4999664;28;20034;-75
2023/10/20 03:50:46;;;;;;;0.50;0.50;;;;;;;10.70;93.74;94854.56;4992006;28;20054;-75
2023/10/20 03:53:22;;;;;;;;;;;;;;;10.72;93.58;94857.75;5016547;28;20038;-72
2023/10/20 03:56:04;;;;;;;0.55;0.55;;;;;;;10.70;93.58;94855.34;5001747;28;20428;-73
2023/10/20 03:58:38;;;;;;;0.50;0.50;;;;;;;10.69;93.61;94856.44;4996622;28;20072;-73
2023/10/20 04:01:14;;;;;;;0.50;0.50;;;;;;;10.66;93.57;94849.75;5009785;28;20125;-74
2023/10/20 04:03:49;;;;;;;0.40;0.40;;;;;;;10.62;94.20;94847.88;5011004;28;20038;-75
2023/10/20 04:06:19;;;;;;;0.40;0.40;;;;;;;10.58;94.06;94836.94;5009225;28;20046;-73
2023/10/20 04:08:47;;;;;;;0.52;0.52;;;;;;;10.57;94.12;94840.69;5015871;28;20042;-73
2023/10/20 04:11:17;;;;;;;0.50;0.50;;;;;;;10.55;94.18;94836.66;5016085;28;20041;-73
2023/10/20 04:13:48;;;;;;;0.50;0.50;;;;;;;10.54;94.47;94841.19;5007305;28;20046;-73
2023/10/20 04:16:18;;;;;;;0.57;0.57;;;;;;;10.56;94.57;94830.25;4991672;28;20058;-73
2023/10/20 04:18:48;;;;;;;0.50;0.50;;;;;;;10.61;94.31;94825.72;4992622;28;20489;-74
2023/10/20 04:21:17;;;;;;;0.50;0.50;;;;;;;10.62;94.27;94822.00;5011342;28;20084;-72
2023/10/20 04:23:46;;;;;;;0.52;0.52;;;;;;;10.63;94.38;94807.59;4994210;28;20493;-74
2023/10/20 04:26:20;;;;;;;0.50;0.50;;;;;;;10.64;94.24;94798.53;5011647;28;20072;-74
2023/10/20 04:29:03;;;;;;;0.55;0.55;;;;;;;10.66;94.01;94790.28;5012019;28;20466;-75
2023/10/20 04:42:56;;;;;;;0.50;0.50;;;;;;;10.58;94.33;94764.94;4981519;28;20517;-73
2023/10/20 04:49:00;;;;;;;0.40;0.40;;;;;;;10.50;94.59;94760.09;4955110;28;20058;-73
2023/10/20 04:51:40;;;;;;;0.70;0.70;;;;;;;10.56;94.02;94766.25;5004729;28;20049;-73
2023/10/20 04:54:10;;;;;;;0.50;0.50;;;;;;;10.54;94.15;94755.06;5009383;28;20475;-73
2023/10/20 04:56:39;;;;;;;0.60;0.60;;;;;;;10.52;94.17;94751.84;5011534;28;20041;-73
2023/10/20 04:59:21;;;;;;;0.52;0.52;;;;;;;10.49;94.47;94747.81;5009621;28;20116;-73
2023/10/20 05:01:58;;;;;;;0.60;0.60;;;;;;;10.46;94.84;94736.91;4994756;28;20058;-72
2023/10/20 05:04:36;;;;;;;0.40;0.40;;;;;;;10.45;94.64;94740.63;4994674;28;20505;-72
2023/10/20 05:07:18;;;;;;;0.60;0.60;;;;;;;10.45;94.58;94738.78;5011745;28;20064;-74
2023/10/20 05:09:54;;;;;;;0.50;0.50;;;;;;;10.48;94.59;94727.59;5010318;28;20048;-73
2023/10/20 05:12:43;;;;;;;0.47;0.47;;;;;;;10.49;94.93;94715.03;4995148;28;20073;-73
2023/10/20 05:15:12;;;;;;;0.85;0.85;;;;;;;10.50;94.73;94709.44;5010421;28;20497;-73
2023/10/20 05:17:46;;;;;;;0.85;0.85;;;;;;;10.51;94.76;94704.91;5009547;28;20080;-75
2023/10/20 05:20:20;;;;;;;0.60;0.60;;;;;;;10.52;94.63;94707.31;4992375;28;20132;-73
2023/10/20 05:22:57;;;;;;;0.60;0.60;;;;;;;10.53;94.64;94708.13;5011493;28;20042;-74
2023/10/20 05:25:31;;;;;;;0.60;0.60;;;;;;;10.51;94.53;94708.38;5010514;28;20385;-73
2023/10/20 05:28:02;;;;;;;0.85;0.85;;;;;;;10.47;94.80;94711.84;5010181;28;20117;-75
2023/10/20 05:30:37;;;;;;;1.10;1.10;;;;;;;10.47;94.98;94712.66;4992021;28;20499;-72
2023/10/20 05:33:19;;;;;;;0.70;0.70;;;;;;;10.51;94.72;94702.25;4993384;28;20092;-72
2023/10/20 05:35:51;;;;;;;0.60;0.60;;;;;;;10.49;94.71;94696.38;5010378;28;20067;-73
2023/10/20 05:38:23;;;;;;;0.57;0.57;;;;;;;10.41;95.23;94708.38;5010552;28;20055;-72
2023/10/20 05:41:00;;;;;;;0.50;0.50;;;;;;;10.45;95.17;94695.31;5012145;28;20055;-74
2023/10/20 05:43:32;;;;;;;0.60;0.60;;;;;;;10.47;94.92;94696.66;5011923;28;20137;-74
2023/10/20 05:46:03;;;;;;;1.13;1.13;;;;;;;10.49;94.84;94691.84;5011070;28;20145;-72
2023/10/20 05:48:34;;;;;;;0.60;0.60;;;;;;;10.54;94.63;94685.72;5009281;28;20105;-72
2023/10/20 05:51:03;;;;;;;0.55;0.55;;;;;;;10.53;94.46;94687.56;5010688;28;20048;-72
2023/10/20 05:53:34;;;;;;;0.45;0.45;;;;;;;10.53;94.51;94684.91;5007984;28;20080;-74
2023/10/20 05:56:02;;;;;;;0.50;0.50;;;;;;;10.53;94.44;94663.56;5008809;28;20056;-74
2023/10/20 05:58:35;;;;;;;1.02;1.02;;;;;;;10.53;94.63;94668.09;5004181;28;20476;-74
2023/10/20 06:01:10;;;;;;;0.50;0.50;;;;;;;10.50;95.03;94676.63;5009444;28;20124;-75
2023/10/20 06:03:45;;;;;;;0.60;0.60;;;;;;;10.49;94.92;94672.38;4991870;28;20505;-74
2023/10/20 06:06:16;;;;;;;0.50;0.50;;;;;;;10.49;94.93;94673.16;5010970;28;20533;-74
2023/10/20 06:08:49;;;;;;;0.40;0.40;;;;;;;10.55;94.36;94666.78;5008422;28;20527;-74
2023/10/20 06:11:36;;;;;;;0.70;0.70;;;;;;;10.53;94.42;94666.25;5010347;28;20049;-74
2023/10/20 06:14:14;;;;;;;0.70;0.70;;;;;;;10.52;94.50;94674.50;5009647;28;20038;-74
2023/10/20 06:16:46;;;;;;;0.68;0.68;;;;;;;10.52;94.77;94645.16;5010088;28;20049;-74
2023/10/20 06:19:24;;;;;;;0.50;0.50;;;;;;;10.58;94.52;94631.59;5010241;28;20389;-74
2023/10/20 06:22:00;;;;;;;0.63;0.63;;;;;;;10.57;94.67;94654.00;5011618;28;20056;-74
2023/10/20 06:24:31;;;;;;;0.60;0.60;;;;;;;10.54;95.16;94646.50;5010666;28;20072;-74
2023/10/20 06:27:03;;;;;;;0.40;0.40;;;;;;;10.52;95.37;94642.50;5010233;28;20042;-74
2023/10/20 06:30:01;;;;;;;0.40;0.40;;;;;;;10.56;95.17;94641.72;5015097;28;20049;-74
2023/10/20 06:32:41;;;;;;;0.60;0.60;;;;;;;10.61;94.71;94638.22;4997364;28;20638;-74
2023/10/20 06:35:16;;;;;;;0.60;0.60;;;;;;;10.68;94.34;94636.13;5014516;28;20065;-73
2023/10/20 06:37:55;;;;;;;0.50;0.50;;;;;;;10.63;94.14;94617.44;5014109;28;20133;-73
2023/10/20 06:40:26;;;;;;;;;;;;;;;10.62;94.08;94615.84;5014924;28;20056;-73
2023/10/20 06:42:56;;;;;;;0.55;0.55;;;;;;;10.57;94.66;94619.31;4995771;28;19932;-73
2023/10/20 06:45:25;;;;;;;0.60;0.60;;;;;;;10.59;94.37;94595.81;4994089;28;20054;-73
2023/10/20 06:47:56;;;;;;;0.55;0.55;;;;;;;10.59;94.84;94595.81;4993409;28;20103;-75
2023/10/20 06:50:26;;;;;;;1.15;0.63;;;;;;;10.61;94.76;94606.22;4995529;28;20049;-74
2023/10/20 06:52:55;;;;;;;0.47;0.47;;;;;;;10.62;94.37;94599.84;5014025;28;20124;-74
2023/10/20 06:55:27;;;;;;;0.60;0.60;;;;;;;10.62;94.64;94595.28;5013253;28;20116;-74
2023/10/20 06:57:58;;;;;;;0.60;0.60;;;;;;;10.56;94.67;94604.38;5011000;28;20042;-74
2023/10/20 07:00:28;;;;;;;0.50;0.50;;;;;;;10.54;94.95;94608.38;5012372;28;20057;-74
2023/10/20 07:02:56;;;;;;;0.45;0.45;;;;;;;10.50;94.97;94610.78;4994013;28;20045;-74
2023/10/20 07:05:26;;;;;;;0.50;0.50;;;;;;;10.52;95.13;94611.31;5013447;28;21048;-74
2023/10/20 07:07:55;;;;;;;0.50;0.50;;;;;;;10.53;95.33;94591.56;5010527;28;20050;-74
2023/10/20 07:10:24;;;;;;;0.95;0.68;;;;;;;10.57;95.22;94581.97;5012327;28;20041;-74
2023/10/20 07:12:53;;;;;;;0.50;0.50;;;;;;;10.57;94.67;94590.00;5012784;28;20046;-74
2023/10/20 07:15:21;;;;;;;0.60;0.60;;;;;;;10.74;93.46;94587.00;5012286;28;20349;-72
2023/10/20 07:17:50;;;;;;;0.63;0.63;;;;;;;10.68;92.48;94576.63;5011498;28;20050;-74
2023/10/20 07:20:18;;;;;;;0.65;0.65;;;;;;;10.64;92.14;94563.81;5013077;28;20038;-72
2023/10/20 07:22:51;;;;;;;0.60;0.60;;;;;;;10.66;91.47;94564.38;5013716;28;20124;-74
2023/10/20 07:25:30;;;;;;;0.70;0.70;;;;;;;10.70;91.09;94553.94;5013008;28;20052;-72
2023/10/20 07:27:59;;;;;;;0.60;0.60;;;;;;;10.72;90.23;94543.00;5019978;28;20053;-73
2023/10/20 07:31:01;;;;;;;0.70;0.70;;;;;;;10.87;89.71;94542.97;5011647;28;20053;-72
2023/10/20 07:33:32;;;;;;;0.70;0.70;;;;;;;10.87;89.62;94540.31;4993683;28;20414;-74
2023/10/20 07:36:04;;;;;;;0.60;0.60;;;;;;;10.92;89.17;94542.94;5014572;28;20050;-74
2023/10/20 07:38:38;;;;;;;0.45;0.45;;;;;;;10.96;89.35;94536.78;5014016;28;20450;-74
2023/10/20 07:41:14;;;;;;;0.60;0.60;;;;;;;10.97;89.40;94533.06;4997509;28;20039;-74
2023/10/20 07:43:43;;;;;;;0.60;0.60;;;;;;;11.01;89.58;94538.63;5016044;28;20062;-73
2023/10/20 07:46:17;;;;;;;0.60;0.60;;;;;;;11.04;89.00;94538.09;5014787;28;20124;-73
2023/10/20 07:48:49;;;;;;;0.50;0.50;;;;;;;11.06;88.44;94527.16;5012331;28;20120;-74
2023/10/20 07:51:18;;;;;;;0.60;0.60;;;;;;;11.09;88.32;94519.41;5013399;28;20042;-73
2023/10/20 07:53:50;;;;;;;0.70;0.70;;;;;;;11.13;88.60;94522.31;4995494;28;20042;-74
2023/10/20 07:56:17;;;;;;;0.50;0.50;;;;;;;11.15;88.12;94507.63;5011866;28;20046;-73
2023/10/20 07:58:45;;;;;;;0.70;0.70;;;;;;;11.16;88.22;94503.09;5012396;28;20041;-74
2023/10/20 08:01:14;;;;;;;1.15;1.15;;;;;;;11.18;88.14;94499.06;5011718;28;20454;-73
2023/10/20 08:03:47;;;;;;;0.68;0.68;;;;;;;11.20;88.14;94490.78;5012322;28;20038;-74
2023/10/20 08:06:16;;;;;;;0.47;0.47;;;;;;;11.20;87.85;94486.25;5011567;28;20056;-74
2023/10/20 08:08:44;;;;;;;0.75;0.75;;;;;;;11.32;87.88;94502.72;5011077;28;20038;-74
2023/10/20 08:11:13;;;;;;;0.52;0.52;;;;;;;11.27;87.42;94500.09;5012059;28;20116;-74
2023/10/20 08:13:41;;;;;;;0.50;0.50;;;;;;;11.27;87.47;94480.59;5012442;28;20045;-72
2023/10/20 08:16:09;;;;;;;0.60;0.60;;;;;;;11.30;88.44;94480.84;5010998;28;20516;-72
2023/10/20 08:18:37;;;;;;;0.40;0.40;;;;;;;11.34;87.87;94483.75;5011288;28;20045;-72
2023/10/20 08:21:07;;;;;;;0.55;0.55;;;;;;;11.36;88.31;94470.94;4993982;28;20404;-72
2023/10/20 08:23:35;;;;;;;0.50;0.50;;;;;;;11.43;88.81;94452.72;5010941;28;20396;-74
2023/10/20 08:26:03;;;;;;;0.60;0.60;;;;;;;11.48;89.20;94463.38;4994187;28;20440;-73
2023/10/20 08:28:32;;;;;;;0.60;0.60;;;;;;;11.53;89.29;94463.34;5010742;28;20338;-73
2023/10/20 08:31:06;;;;;;;0.73;0.73;;;;;;;11.55;89.67;94449.72;5011547;28;20038;-73
2023/10/20 08:33:34;;;;;;;0.63;0.63;;;;;;;11.57;90.19;94445.69;5008267;28;20107;-74
2023/10/20 08:36:11;;;;;;;0.50;0.50;;;;;;;11.59;89.82;94438.19;5010680;28;20038;-73
2023/10/20 08:38:40;;;;;;;0.50;0.50;;;;;;;11.60;89.95;94434.44;5028133;22;20049;-74
2023/10/20 08:41:10;;;;;;;0.52;0.52;;;;;;;11.58;89.97;94433.94;5017300;28;20042;-74
2023/10/20 08:43:43;;;;;;;0.50;0.50;;;;;;;11.58;89.92;94417.91;5021698;28;20041;-74
2023/10/20 08:46:14;;;;;;;0.50;0.50;;;;;;;11.58;89.98;94422.44;5013637;28;20052;-74
2023/10/20 08:48:42;;;;;;;0.60;0.60;;;;;;;11.56;89.84;94427.25;5024588;28;20054;-73
2023/10/20 08:51:12;;;;;;;0.52;0.52;;;;;;;11.57;90.13;94428.88;5021574;28;20153;-74
2023/10/20 08:53:41;;;;;;;0.60;0.60;;;;;;;11.51;89.87;94430.78;5022807;28;20050;-74
2023/10/20 08:56:11;;;;;;;0.82;0.80;;;;;;;11.48;90.19;94430.53;5017607;28;20041;-75
2023/10/20 08:58:39;;;;;;;0.50;0.50;;;;;;;11.40;91.21;94440.75;5016928;28;20072;-74
2023/10/20 09:01:08;;;;;;;0.63;0.63;;;;;;;11.43;91.17;94442.03;5011217;28;20054;-76
2023/10/20 09:03:40;;;;;;;0.70;0.70;;;;;;;11.43;90.98;94436.69;5020035;28;20045;-75
2023/10/20 09:06:10;;;;;;;0.52;0.52;;;;;;;11.43;91.01;94447.38;5019911;28;20054;-75
2023/10/20 09:08:38;;;;;;;0.52;0.52;;;;;;;11.46;90.94;94438.03;5012983;28;20049;-75
2023/10/20 09:11:08;;;;;;;0.60;0.60;;;;;;;11.48;90.83;94436.69;5024220;28;20392;-75
2023/10/20 09:13:37;;;;;;;0.73;0.60;;;;;;;11.48;91.20;94434.00;5011853;28;20052;-74
2023/10/20 09:16:08;;;;;;;0.93;0.93;;;;;;;11.50;91.33;94439.06;5028422;28;20107;-75
2023/10/20 09:18:45;;;;;;;0.60;0.60;;;;;;;11.44;91.14;94435.63;5014063;28;20041;-75
2023/10/20 09:21:14;;;;;;;0.52;0.52;;;;;;;11.48;91.39;94428.66;5021388;28;20041;-75
2023/10/20 09:23:42;;;;;;;0.90;0.90;;;;;;;11.49;91.51;94419.59;5019685;28;20121;-75
2023/10/20 09:26:09;;;;;;;0.65;0.65;;;;;;;11.52;91.84;94428.91;4996138;28;20136;-75
2023/10/20 09:28:37;;;;;;;0.70;0.70;;;;;;;11.56;91.47;94421.94;5011123;28;20060;-75
2023/10/20 09:31:06;;;;;;;2.25;2.15;;;;;;;11.59;91.30;94421.38;4998695;28;20204;-76
2023/10/20 09:33:33;;;;;;;0.65;0.65;;;;;;;11.62;91.46;94410.94;5015293;28;20049;-75
2023/10/20 09:36:03;;;;;;;0.70;0.70;;;;;;;11.66;91.70;94413.81;5015576;28;20132;-75
2023/10/20 09:38:31;;;;;;;1.23;1.23;;;;;;;11.70;91.71;94420.22;5012586;28;20409;-76
2023/10/20 09:41:11;;;;;;;0.82;0.82;;;;;;;11.70;91.87;94412.19;5018785;28;20042;-75
2023/10/20 09:43:46;;;;;;;0.57;0.52;;;;;;;11.72;91.95;94410.06;5018812;28;20124;-75
2023/10/20 09:46:29;;;;;;;0.60;0.60;;;;;;;11.73;92.10;94408.97;4997862;28;20485;-75
2023/10/20 09:48:57;;;;;;;0.63;0.63;;;;;;;11.74;92.33;94406.00;5012878;28;20417;-75
2023/10/20 09:51:27;;;;;;;0.60;0.60;;;;;;;11.78;92.55;94411.63;5019333;28;20041;-75
2023/10/20 09:53:56;;;;;;;0.60;0.60;;;;;;;11.79;92.61;94399.06;5016686;28;20132;-75
2023/10/20 09:56:24;;;;;;;0.60;0.60;;;;;;;11.82;92.68;94406.53;5004569;28;20049;-75
2023/10/20 09:58:57;;;;;;;0.75;0.63;;;;;;;11.83;92.65;94402.78;5017213;28;20103;-75
2023/10/20 10:01:25;;;;;;;0.70;0.70;;;;;;;11.83;92.63;94406.25;5015588;28;20128;-75
2023/10/20 10:04:01;;;;;;;0.52;0.52;;;;;;;11.85;92.69;94404.06;5016941;28;20053;-75
2023/10/20 10:06:35;;;;;;;0.63;0.63;;;;;;;11.87;92.73;94415.28;5007349;28;20103;-75
2023/10/20 10:09:04;;;;;;;0.65;0.65;;;;;;;11.88;92.82;94419.56;5006260;28;20129;-75
2023/10/20 10:11:34;;;;;;;0.63;0.63;;;;;;;11.87;93.03;94409.94;5009581;28;20045;-75
2023/10/20 10:14:04;;;;;;;0.55;0.55;;;;;;;11.86;93.23;94418.22;5013197;28;20053;-75
2023/10/20 10:16:32;;;;;;;0.50;0.50;;;;;;;11.89;93.17;94415.81;5017015;28;20085;-75
2023/10/20 10:19:09;;;;;;;0.68;0.68;;;;;;;11.90;93.23;94424.63;5012115;28;20521;-75
2023/10/20 10:21:42;;;;;;;0.70;0.70;;;;;;;11.91;92.96;94410.97;5018709;28;20100;-75
2023/10/20 10:24:15;;;;;;;0.60;0.60;;;;;;;11.95;93.10;94409.31;5015330;28;20145;-75
2023/10/20 10:27:03;;;;;;;0.60;0.60;;;;;;;11.97;93.03;94403.69;5015341;28;20465;-76
2023/10/20 10:29:48;;;;;;;0.70;0.70;;;;;;;11.99;93.16;94391.66;5018789;28;20408;-73
2023/10/20 10:32:18;;;;;;;0.70;0.70;;;;;;;12.01;93.36;94383.34;5023544;28;20049;-74
2023/10/20 10:34:48;;;;;;;0.70;0.70;;;;;;;12.02;93.24;94375.06;5028796;28;20082;-74
2023/10/20 10:37:27;;;;;;;0.60;0.60;;;;;;;12.04;93.39;94364.09;5024486;28;20049;-73
2023/10/20 10:40:07;;;;;;;0.60;0.60;;;;;;;12.07;93.27;94350.13;5017402;28;20178;-74
2023/10/20 10:42:42;;;;;;;0.52;0.52;;;;;;;12.12;93.31;94356.25;5014029;28;20053;-74
2023/10/20 10:45:21;;;;;;;0.70;0.70;;;;;;;12.17;93.33;94350.03;5017095;28;20145;-73
2023/10/20 10:47:50;;;;;;;0.60;0.60;;;;;;;12.19;92.46;94350.53;5016818;28;20132;-73
2023/10/20 10:50:20;;;;;;;0.68;0.68;;;;;;;12.19;92.07;94347.88;5022470;28;20388;-74
2023/10/20 10:52:49;;;;;;;0.60;0.60;;;;;;;12.22;92.10;94349.19;5014387;28;20052;-73
2023/10/20 10:55:20;;;;;;;0.70;0.70;;;;;;;12.24;91.90;94368.41;5014314;28;20096;-74
2023/10/20 10:57:48;;;;;;;0.40;0.40;;;;;;;12.26;91.74;94356.34;5016138;28;20077;-73
2023/10/20 11:00:16;;;;;;;0.50;0.50;;;;;;;12.29;91.63;94350.41;5016855;28;20038;-73
2023/10/20 11:02:44;;;;;;;0.50;0.50;;;;;;;12.33;91.28;94345.31;5013116;28;20050;-73
2023/10/20 11:05:13;;;;;;;0.70;0.70;;;;;;;12.34;90.93;94353.06;5014629;28;20046;-73
2023/10/20 11:07:41;;;;;;;1.02;0.80;;;;;;;12.36;90.75;94356.22;5014006;28;20046;-73
2023/10/20 11:10:10;;;;;;;0.60;0.60;;;;;;;12.36;90.83;94345.50;5014372;28;20045;-73
2023/10/20 11:12:38;;;;;;;0.45;0.45;;;;;;;12.40;91.30;94364.47;5014962;28;20060;-72
2023/10/20 11:15:07;;;;;;;0.68;0.68;;;;;;;12.30;90.86;94360.03;4996831;28;20049;-73
2023/10/20 11:17:36;;;;;;;0.55;0.55;;;;;;;12.39;90.81;94362.88;5013266;28;20129;-73
2023/10/20 11:20:04;;;;;;;0.60;0.60;;;;;;;12.46;90.57;94372.13;5013821;28;20050;-73
2023/10/20 11:22:37;;;;;;;0.80;0.80;;;;;;;12.48;90.63;94372.66;5013836;28;20394;-74
2023/10/20 11:25:06;;;;;;;0.40;0.40;;;;;;;12.45;90.35;94378.59;5013552;28;20049;-73
2023/10/20 11:27:43;;;;;;;0.60;0.60;;;;;;;12.35;90.13;94380.59;4996126;28;20127;-73
2023/10/20 11:30:11;;;;;;;0.40;0.40;;;;;;;12.31;90.33;94371.53;5017541;28;20038;-73
2023/10/20 11:32:39;;;;;;;0.70;0.70;;;;;;;12.32;90.17;94357.88;5020319;28;20045;-72
2023/10/20 11:35:09;;;;;;;0.40;0.40;;;;;;;12.35;90.27;94365.34;5018599;28;20504;-75
2023/10/20 11:37:37;;;;;;;0.50;0.50;;;;;;;12.36;90.29;94371.47;5027862;28;20052;-72
2023/10/20 11:40:08;;;;;;;0.50;0.50;;;;;;;12.37;90.75;94381.88;5006423;28;20060;-72
2023/10/20 11:42:36;;;;;;;0.60;0.60;;;;;;;12.34;90.79;94368.28;5022798;28;20069;-74
2023/10/20 11:45:06;;;;;;;0.50;0.50;;;;;;;12.36;91.03;94376.81;5026272;28;20042;-74
2023/10/20 11:47:34;;;;;;;0.70;0.70;;;;;;;12.37;90.89;94373.84;5016946;28;20080;-72
2023/10/20 11:50:02;;;;;;;0.60;0.60;;;;;;;12.36;90.88;94379.47;5017180;28;20045;-72
2023/10/20 11:52:30;;;;;;;0.60;0.60;;;;;;;12.39;90.99;94387.75;5027455;28;20097;-73
2023/10/20 11:54:57;;;;;;;0.65;0.65;;;;;;;12.38;90.89;94382.69;5019783;28;20057;-72
2023/10/20 11:57:25;;;;;;;0.50;0.50;;;;;;;12.43;91.15;94379.97;5012717;28;20044;-73
2023/10/20 11:59:53;;;;;;;0.63;0.63;;;;;;;12.42;90.99;94389.84;5022081;28;20099;-73
2023/10/20 12:02:23;;;;;;;0.40;0.40;;;;;;;12.43;91.32;94398.69;5023739;28;20060;-73
2023/10/20 12:04:50;;;;;;;0.50;0.50;;;;;;;12.42;91.08;94407.78;5013649;28;20777;-73
2023/10/20 12:07:20;;;;;;;0.60;0.60;;;;;;;12.45;91.52;94381.28;5014663;28;20042;-73